Tiempo atmosférico en la estación meteorológica de Medina De Pomar, Burgos (580 m.)



Fecha
DESCASC
Temp. máxima en grados centígrados (hora)
DESCASC
Temp. mínima en grados centígrados (hora)
DESCASC
Temp. media en grados centígrados
DESCASC
Racha de viento máxima en m/sg (hora)
DESCASC
Velocidad máxima media en intervalos de 10 minutos(hora)
DESCASC
Precipitaciones diarias en mm
DESCASC
Precipitaciones de 00:00 a 06:00 en mm
DESCASC
Precipitaciones de 06:00 a 12:00 en mm
DESCASC
Precipitaciones de 12:00 a 18:00 en mm
DESCASC
Precipitaciones de 18:00 a 24:00 en mm
DESCASC
14-02-2019 12.4 (15:20) -2 (08:20) 5.2 9.44 (16:10) 5 (16:20) 0 0 0 0 0
13-02-2019 17.1 (16:50) -3.5 (08:20) 6.8 5.56 (17:10) 3.33 (17:40) 0 0 0 0 0
12-02-2019 13.9 (18:00) -1.9 (08:40) 6 3.33 (23:59) 1.67 (20:20) 0 0 0 0 0
11-02-2019 9.5 (15:30) 2.5 (05:20) 6 6.39 (12:10) 3.33 (13:20) 0.2 0 0.2 0 0
10-02-2019 10 (10:20) 5.5 (00:00) 7.8 15.28 (09:20) 5.28 (09:30) 5 0.2 0.4 4.4 0
09-02-2019 12.3 (14:50) 0.3 (00:00) 6.3 11.94 (14:50) 4.72 (15:00) 0 0 0 0 0
08-02-2019 13.2 (15:50) -0.8 (-00:0) 6.2 10.83 (13:40) 5.83 (13:30) 0 0 0 0 0
07-02-2019 10.6 (16:50) 1.4 (00:00) 6 4.17 (15:20) 2.5 (15:40) 0 0 0 0 0
06-02-2019 15.1 (16:20) -1.1 (-00:0) 7 7.5 (16:10) 2.5 (17:30) 0 0 0 0 0
05-02-2019 14.6 (17:30) -0.7 (-00:0) 7 3.33 (15:00) 1.39 (14:30) 0 0 0 0 0
04-02-2019 7.3 (16:10) -2.8 (-00:0) 2.3 5.83 (16:30) 2.78 (16:30) 0 0 0 0 0
03-02-2019 6.1 (16:50) -1.9 (-00:0) 2.1 13.61 (00:20) 4.72 (00:30) 3.2 0.8 1.4 1 0
02-02-2019 5.7 (12:40) 0.5 (00:00) 3.1 18.06 (04:50) 7.5 (04:50) 25.8 16.4 3.4 4 2
01-02-2019 8.9 (00:10) 2.4 (00:00) 5.6 18.33 (12:20) 7.78 (06:40) 4.6 0 0 2.6 2
31-01-2019 14 (14:50) 4.5 (00:00) 9.3 16.11 (18:20) 6.11 (17:20) 11.8 2.6 0.4 0 8.8
30-01-2019 8.8 (14:30) 1.8 (00:00) 5.3 12.78 (00:10) 5.56 (18:10) 3.4 0 0 0 3.4
29-01-2019 9.1 (15:50) 3.6 (00:00) 6.4 17.22 (17:10) 6.39 (17:10) 2.4 0.6 0 1.8 0
28-01-2019 8.7 (12:30) 4.3 (00:00) 6.5 18.33 (12:00) 6.39 (12:10) 5.8 1.2 0.6 1.8 2.2
27-01-2019 6.8 (14:30) 0.2 (00:00) 3.5 15 (15:50) 5.83 (09:40) 4.2 0 1.2 2 1
26-01-2019 13.7 (16:10) 1 (00:00) 7.3 6.39 (16:50) 3.89 (16:50) 0 0 0 0 0
25-01-2019 11.9 (12:50) 6 (00:00) 8.9 8.89 (08:00) 4.17 (08:00) 0 0 0 0 0
24-01-2019 9.1 (22:10) 5.3 (00:00) 7.2 8.89 (23:10) 3.89 (23:00) 25.8 11.2 12.8 1.8 0
23-01-2019 8 (13:10) 2.1 (00:00) 5 14.72 (07:20) 5.83 (20:10) 33 12 5.4 5.4 10.2
22-01-2019 3.2 (10:30) -0.2 (00:00) 1.5 6.94 (13:00) 3.61 (13:00) 20.2 0 3 8.6 8.6
21-01-2019 7.2 (14:10) 1.3 (00:00) 4.2 6.11 (14:20) 2.78 (19:10) 6.8 5.8 0.8 0 0.2
20-01-2019 6.9 (16:50) 2.3 (00:00) 4.6 8.06 (14:50) 4.44 (14:50) 13.3 1.6 2.6 4.8 4.3
19-01-2019 6.1 (15:00) 2.2 (00:00) 4.1 6.67 (12:20) 4.17 (12:10) 3.2 0 0 0.6 2.6

Gráficas

Temp. máximas Temp. mínimas Temp. medias Precipitaciones Rachas de viento máximas Velocidades máximas media en intervalos de 10 minutos

Datos horarios

Fecha y hora oficial Temperatura (ºC) Velocidad del viento (km/h) Dirección del viento Racha (km/h) Dirección de racha Precipitación (mm) Presión (hPa) Tendencia (hPa) Humedad (%)
2019-02-17 23:00:00 2.7 5 Norte 13 Norte 0 951.2 0.2 68
2019-02-17 22:00:00 3.4 2 Norte 9 Norte 0 951.1 0.4 66
2019-02-17 21:00:00 4.9 6 Norte 11 Nordeste 0 951 0.2 59
2019-02-17 20:00:00 6.8 0 Calma 4 Este 0 951 0 55
2019-02-17 19:00:00 11.5 2 Sudeste 15 Sudeste 0 950.7 -1 40
2019-02-17 18:00:00 14 7 Sudeste 23 Sudeste 0 950.8 -1.7 30
2019-02-17 17:00:00 15 13 Sudeste 26 Sur 0 951 -2.3 26
2019-02-17 16:00:00 15.5 15 Sudeste 32 Sudeste 0 951.7 -2.5 26
2019-02-17 15:00:00 14.6 17 Sudeste 33 Sudeste 0 952.5 -2.3 26
2019-02-17 14:00:00 14 18 Sudeste 35 Sudeste 0 953.3 -2.1 30
2019-02-17 13:00:00 12.5 15 Sudeste 33 Sudeste 0 954.2 -1.7 32
2019-02-17 12:00:00 11.2 13 Sudeste 29 Sudeste 0 954.8 -1 39
2019-02-17 11:00:00 8.9 8 Sudeste 15 Sudeste 0 955.4 -0.1 41
2019-02-17 10:00:00 4.5 4 Oeste 9 Oeste 0 955.9 0.5 66
2019-02-17 09:00:00 -0.2 3 Oeste 8 Oeste 0 955.8 0.5 84
2019-02-17 08:00:00 -0.4 4 Sudoeste 14 Sudeste 0 955.5 0.5 81
2019-02-17 07:00:00 -0.2 5 Oeste 12 Oeste 0 955.4 0.1 81
2019-02-17 06:00:00 2 3 Sudoeste 21 Este 0 955.3 -0.3 72
2019-02-17 05:00:00 5.1 10 Este 27 Este 0 955 -0.8 57
2019-02-17 04:00:00 0.9 5 Sudoeste 18 Sudeste 0 955.3 -0.5 84
2019-02-17 03:00:00 1.2 4 Oeste 10 Noroeste 0 955.6 -0.1 83
2019-02-17 02:00:00 1.1 3 Nordeste 6 Nordeste 0 955.8 0.1 82
2019-02-17 01:00:00 2 3 Nordeste 6 Nordeste 0 955.8 0.3 81
2019-02-17 00:00:00 3 2 Sudoeste 7 Norte 0 955.7 0.3 78
2019-02-16 23:00:00 4.6 3 Norte 9 Sudoeste 0 955.7 0.5 72
2019-02-16 22:00:00 4.9 0 Calma 6 Sur 0 955.5 0.7 73
2019-02-16 21:00:00 7.8 0 Calma 9 Sur 0 955.4 0.6 62
2019-02-16 20:00:00 9.1 4 Sur 25 Sudeste 0 955.2 0.1 61
2019-02-16 19:00:00 10.9 13 Sudeste 26 Sudeste 0 954.8 -0.8 58
2019-02-16 18:00:00 14.1 13 Sudeste 27 Sudeste 0 954.8 -1.7 51
2019-02-16 17:00:00 15.7 16 Sudeste 27 Sudeste 0 955.1 -2.6 44
2019-02-16 16:00:00 15.7 12 Sudeste 23 Sudeste 0 955.6 -3.4 44
2019-02-16 15:00:00 14.7 12 Sudeste 23 Sudeste 0 956.5 -3.1 46
2019-02-16 14:00:00 13.1 7 Sur 14 Sudeste 0 957.7 -2.3 50
2019-02-16 13:00:00 9.7 3 Sudoeste 10 Oeste 0 959 -1.3 59
2019-02-16 12:00:00 6.9 4 Sudoeste 9 Oeste 0 959.6 -0.6 68
2019-02-16 11:00:00 4.3 3 Sudeste 6 Este 0 960 0.2 75
2019-02-16 10:00:00 0.6 0 Calma 4 Nordeste 0 960.3 0.5 86
2019-02-16 09:00:00 -2.4 2 Sudeste 4 Norte 0 960.2 0.4 92
2019-02-16 08:00:00 -2.7 0 Calma 5 Norte 0 959.8 0 92
2019-02-16 07:00:00 -2.4 2 Este 7 Nordeste 0 959.8 -0.4 91
2019-02-16 06:00:00 -1.8 3 Nordeste 5 Nordeste 0 959.8 -0.6 91
2019-02-16 05:00:00 -1.7 2 Nordeste 5 Nordeste 0 959.8 -0.7 91
2019-02-16 04:00:00 -1.3 0 Calma 6 Norte 0 960.2 -0.1 90
2019-02-16 03:00:00 -0.7 3 Norte 8 Norte 0 960.4 0.1 91
2019-02-16 02:00:00 -0.2 0 Calma 4 Nordeste 0 960.5 0.3 89
2019-02-16 01:00:00 0.8 3 Nordeste 8 Nordeste 0 960.3 0.4 88
2019-02-16 00:00:00 1.7 4 Nordeste 7 Nordeste 0 960.3 0.7 87
2019-02-15 23:00:00 2.9 0 Calma 5 Nordeste 0 960.2 1 83
2019-02-15 22:00:00 4.5 0 Calma 7 Nordeste 0 959.9 1.4 80
2019-02-15 21:00:00 5.8 3 Nordeste 6 Nordeste 0 959.6 1.5 77
2019-02-15 20:00:00 8.8 5 Sur 15 Sudeste 0 959.2 1 65
2019-02-15 19:00:00 11.6 10 Sudeste 21 Sudeste 0 958.5 0.2 55
2019-02-15 18:00:00 15 12 Sudeste 22 Sudeste 0 958.1 -0.8 44
2019-02-15 17:00:00 16.4 12 Sudeste 24 Sudeste 0 958.2 -1.5 39
2019-02-15 16:00:00 16.6 14 Sur 23 Sudeste 0 958.3 -2.5 40
2019-02-15 15:00:00 15.9 10 Sudeste 20 Sur 0 958.9 -2.5 42
2019-02-15 14:00:00 13.6 6 Sur 15 Sur 0 959.7 -1.7 47
2019-02-15 13:00:00 11.3 5 Sudeste 16 Sudeste 0 960.8 -0.5 58
2019-02-15 12:00:00 8.6 5 Sudeste 11 Sudeste 0 961.4 0.4 62
2019-02-15 11:00:00 5.2 3 Oeste 8 Oeste 0 961.4 0.8 74
2019-02-15 10:00:00 2.3 0 Calma 4 Este 0 961.3 0.9 86
2019-02-15 09:00:00 -1.7 0 Calma 6 Norte 0 961 0.8 92
2019-02-15 08:00:00 -2.5 0 Calma 6 Oeste 0 960.6 0.5 91
2019-02-15 07:00:00 -2 2 Oeste 10 Norte 0 960.4 0.1 91
2019-02-15 06:00:00 -2 3 Nordeste 5 Nordeste 0 960.2 -0.3 91
2019-02-15 05:00:00 -1.6 0 Calma 6 Sudeste 0 960.1 -0.4 91
2019-02-15 04:00:00 -1.3 0 Calma 8 Nordeste 0 960.3 0.2 91
2019-02-15 03:00:00 -0.9 2 Norte 5 Nordeste 0 960.5 0.3 90
2019-02-15 02:00:00 -0.5 0 Calma 6 Norte 0 960.5 0.4 90
2019-02-15 01:00:00 0.1 3 Norte 6 Norte 0 960.1 0.1 88
2019-02-15 00:00:00 1 3 Sudeste 6 Sur 0 960.2 0.2 88
2019-02-14 23:00:00 2.2 2 Oeste 6 Oeste 0 960.1 0.3 87
2019-02-14 22:00:00 3.6 2 Norte 7 Sur 0 960 0.5 81
2019-02-14 21:00:00 5.6 3 Oeste 14 Sudeste 0 960 0.8 75
2019-02-14 20:00:00 6.9 4 Sur 13 Sur 0 959.8 0.4 71
2019-02-14 19:00:00 8.8 4 Sur 18 Sur 0 959.5 -0.4 67
2019-02-14 18:00:00 11.7 9 Sudeste 26 Sudeste 0 959.2 -1.3 57
2019-02-14 17:00:00 12.3 14 Sudeste 34 Sudeste 0 959.4 -2 54
2019-02-14 16:00:00 12.2 13 Sudeste 28 Sudeste 0 959.9 -2.4 53
2019-02-14 15:00:00 11.9 14 Sudeste 26 Sudeste 0 960.5 -2.4 53
2019-02-14 14:00:00 11 14 Sudeste 29 Sudeste 0 961.4 -1.8 57
2019-02-14 13:00:00 9.8 15 Sudeste 30 Sudeste 0 962.3 -0.8 62
2019-02-14 12:00:00 8.9 13 Sudeste 25 Sudeste 0 962.9 0.1 67
2019-02-14 11:00:00 6.3 4 Sur 7 Sur 0 963.2 1 74
2019-02-14 10:00:00 2.1 0 Calma 5 Nordeste 0 963.1 1 87
2019-02-14 09:00:00 -1.6 0 Calma 4 Norte 0 962.8 0.8 92
2019-02-14 08:00:00 -1.8 0 Calma 3 Este 0 962.2 0.2 92
2019-02-14 07:00:00 -1.3 0 Calma 10 Norte 0 962.1 0 91
2019-02-14 06:00:00 -1.3 3 Nordeste 5 Nordeste 0 962 -0.3 91
2019-02-14 05:00:00 -1.1 0 Calma 4 Sudeste 0 962 -0.4 91
2019-02-14 04:00:00 -0.8 0 Calma 6 Nordeste 0 962.1 -0.2 90
2019-02-14 03:00:00 -0.3 0 Calma 6 Norte 0 962.3 0 89
2019-02-14 02:00:00 0.3 2 Nordeste 5 Nordeste 0 962.4 0.3 89
2019-02-14 01:00:00 1.2 0 Calma 5 Norte 0 962.3 0.6 86
2019-02-14 00:00:00 2.5 2 Norte 9 Norte 0 962.3 0.9 84
2019-02-13 23:00:00 3.2 2 Nordeste 5 Nordeste 0 962.1 1.1 82
2019-02-13 22:00:00 4.7 2 Noroeste 6 Norte 0 961.7 1.4 79
2019-02-13 21:00:00 7.4 2 Nordeste 12 Sudeste 0 961.4 1.5 67
2019-02-13 20:00:00 9.2 6 Sudeste 17 Sudeste 0 961 1.2 62
2019-02-13 19:00:00 11.5 7 Sur 18 Sudeste 0 960.3 0.4 55
2019-02-13 18:00:00 15.5 10 Sudeste 20 Sudeste 0 959.9 -0.5 41
2019-02-13 17:00:00 16.9 11 Sudeste 19 Sur 0 959.8 -1.3 38
2019-02-13 16:00:00 15.8 9 Sur 17 Sur 0 959.9 -2.1 44
2019-02-13 15:00:00 13.9 6 Sudeste 13 Sudeste 0 960.4 -2.1 48
2019-02-13 14:00:00 12 5 Sudeste 11 Sur 0 961.1 -1.4 54
2019-02-13 13:00:00 8.6 4 Este 9 Este 0 962 -0.7 60
2019-02-13 12:00:00 6.4 4 Sudeste 9 Sudeste 0 962.5 -0.1 70
2019-02-13 11:00:00 3.6 2 Sudeste 6 Sur 0 962.5 0.3 75
2019-02-13 10:00:00 0.8 0 Calma 5 Sudeste 0 962.7 0.4 87
2019-02-13 09:00:00 -2.8 2 Nordeste 5 Nordeste 0 962.6 0.4 93
2019-02-13 08:00:00 -3.2 0 Calma 4 Oeste 0 962.2 -0.1 92
2019-02-13 07:00:00 -2.9 0 Calma 4 Nordeste 0 962.3 -0.1 92
2019-02-13 06:00:00 -2.7 0 Calma 4 Nordeste 0 962.2 -0.4 92
2019-02-13 05:00:00 -2.1 0 Calma 5 Norte 0 962.3 -0.5 92
2019-02-13 04:00:00 -1.9 2 Nordeste 5 Nordeste 0 962.4 -0.5 91
2019-02-13 03:00:00 -1.3 2 Nordeste 13 Sudeste 0 962.6 -0.4 91
2019-02-13 02:00:00 -0.6 0 Calma 4 Este 0 962.8 -0.2 91
2019-02-13 01:00:00 -0.1 3 Oeste 5 Sudoeste 0 962.9 -0.1 90
2019-02-13 00:00:00 0.5 2 Nordeste 12 Sudeste 0 963 0.2 88
2019-02-12 23:00:00 1.6 3 Nordeste 8 Norte 0 963 0.3 86
2019-02-12 22:00:00 2.7 2 Norte 5 Nordeste 0 963 0.7 85
2019-02-12 21:00:00 4.4 4 Nordeste 8 Norte 0 962.8 0.8 79
2019-02-12 20:00:00 6.2 2 Norte 6 Sudeste 0 962.7 0.4 77
2019-02-12 19:00:00 10.1 0 Calma 6 Sudoeste 0 962.3 -0.3 62
2019-02-12 18:00:00 13.8 3 Sur 7 Sudoeste 0 962 -1 45
2019-02-12 17:00:00 13 2 Oeste 9 Sudoeste 0 962.3 -1.5 45
2019-02-12 16:00:00 12.8 3 Sur 12 Sudoeste 0 962.6 -1.9 44
2019-02-12 15:00:00 11.3 2 Norte 10 Norte 0 963 -1.9 54
2019-02-12 14:00:00 9.5 3 Oeste 9 Oeste 0 963.8 -1.7 60
2019-02-12 13:00:00 7.7 2 Noroeste 9 Oeste 0 964.5 -1 64
2019-02-12 12:00:00 5 3 Noroeste 9 Este 0 964.9 -0.2 83
2019-02-12 11:00:00 1.8 2 Noroeste 7 Nordeste 0 965.5 0.7 93
2019-02-12 10:00:00 -0.3 0 Calma 7 Nordeste 0 965.5 0.8 93
2019-02-12 09:00:00 -1.4 0 Calma 5 Norte 0 965.1 -0.1 93
2019-02-12 08:00:00 -1.6 2 Este 6 Nordeste 0 964.8 -0.2 92
2019-02-12 07:00:00 -1 3 Norte 5 Nordeste 0 964.7 -0.2 92
2019-02-12 06:00:00 -0.6 0 Calma 6 Oeste 0 965.2 0.2 92
2019-02-12 05:00:00 -0.2 3 Nordeste 8 Norte 0 965 -0.1 91
2019-02-12 04:00:00 0.1 2 Nordeste 5 Nordeste 0 964.9 -0.2 91
2019-02-12 03:00:00 1 3 Oeste 6 Sur 0 965 -0.5 90
2019-02-12 02:00:00 2.2 3 Nordeste 6 Nordeste 0 965.1 -0.3 88
2019-02-12 01:00:00 3.7 0 Calma 5 Este 0 965.1 0 86
2019-02-12 00:00:00 4.1 0 Calma 4 Noroeste 0 965.5 0.5 86
2019-02-11 23:00:00 4 0 Calma 7 Sudeste 0 965.4 0.9 85
2019-02-11 22:00:00 3.1 3 Sudeste 8 Sudeste 0 965.1 1.1 88
2019-02-11 21:00:00 2.8 0 Calma 9 Nordeste 0 965 1.4 86
2019-02-11 20:00:00 3.9 3 Norte 7 Norte 0 964.5 1.1 83
2019-02-11 19:00:00 5.7 5 Nordeste 19 Nordeste 0 964 0.8 78
2019-02-11 18:00:00 7.4 8 Nordeste 19 Nordeste 0 963.6 0.5 71
2019-02-11 17:00:00 7.9 8 Nordeste 19 Norte 0 963.4 -0.1 68
2019-02-11 16:00:00 8.8 7 Norte 21 Norte 0 963.2 -0.5 62
2019-02-11 15:00:00 9.1 7 Nordeste 20 Norte 0 963.1 -0.2 66
2019-02-11 14:00:00 8.2 7 Noroeste 22 Oeste 0 963.5 0.6 64
2019-02-11 13:00:00 8.1 10 Oeste 23 Oeste 0 963.7 1.1 65
2019-02-11 12:00:00 8 8 Oeste 19 Oeste 0.2 963.3 1.5 67
2019-02-11 11:00:00 5.9 9 Oeste 17 Oeste 0 962.9 2 76
2019-02-11 10:00:00 4.9 3 Noroeste 10 Oeste 0 962.6 2.1 80
2019-02-11 09:00:00 4 0 Calma 8 Sur 0 961.8 1.8 83
2019-02-11 08:00:00 3.3 2 Sudeste 6 Sur 0 960.9 1.4 86
2019-02-11 07:00:00 3.3 0 Calma 5 Este 0 960.5 1.1 84
2019-02-11 06:00:00 2.6 2 Sudeste 9 Sudeste 0 960 0.7 82
2019-02-11 05:00:00 2.7 3 Sur 8 Sudoeste 0 959.5 0.5 80
2019-02-11 04:00:00 4.1 3 Sudoeste 10 Oeste 0 959.4 0.9 73
2019-02-11 03:00:00 4.3 5 Oeste 13 Oeste 0 959.3 1.2 75
2019-02-11 02:00:00 4.8 2 Sur 13 Oeste 0 959 1.4 75
2019-02-11 01:00:00 5.4 5 Oeste 14 Oeste 0 958.5 1.3 70
2019-02-11 00:00:00 5.7 5 Noroeste 20 Oeste 0 958.1 1.4 71
2019-02-10 23:00:00 5.7 7 Oeste 33 Oeste 0 957.6 1.2 78
2019-02-10 22:00:00 5.8 12 Noroeste 30 Oeste 0 957.2 2 76
2019-02-10 21:00:00 6 5 Oeste 13 Oeste 0 956.7 2.4 78
2019-02-10 20:00:00 6.1 8 Oeste 18 Noroeste 0 956.4 2.8 76
2019-02-10 19:00:00 6.4 4 Noroeste 20 Oeste 0 955.2 2.2 80
2019-02-10 18:00:00 7.1 10 Oeste 20 Noroeste 0 954.3 1.8 77
2019-02-10 17:00:00 7.7 8 Oeste 19 Noroeste 0 953.6 1.7 81
2019-02-10 16:00:00 8.3 9 Oeste 23 Oeste 0.4 953 1.4 81
2019-02-10 15:00:00 8.8 4 Sudoeste 10 Sudoeste 0.4 952.5 1.9 86
2019-02-10 14:00:00 8.1 3 Oeste 12 Norte 1.4 951.9 1.8 87
2019-02-10 13:00:00 7.5 4 Norte 27 Nordeste 2.2 951.6 2.4 89
2019-02-10 12:00:00 8.5 8 Norte 20 Noroeste 0.2 950.6 2.9 83
2019-02-10 11:00:00 9.7 11 Sudoeste 43 Oeste 0 950.1 2 79
2019-02-10 10:00:00 9.8 13 Sudoeste 55 Sur 0 949.2 1.2 73
2019-02-10 09:00:00 9.3 13 Sudoeste 43 Oeste 0 947.7 -0.5 73
2019-02-10 08:00:00 9.2 13 Sudoeste 42 Sudoeste 0.2 948.1 0.2 72
2019-02-10 07:00:00 8.8 10 Sudoeste 30 Sudoeste 0 948 -0.6 74
2019-02-10 06:00:00 9 8 Sudoeste 30 Sur 0.2 948.2 -1.3 72
2019-02-10 05:00:00 9.2 5 Sur 38 Sudoeste 0 947.9 -1.8 67
2019-02-10 04:00:00 8.8 7 Sudoeste 30 Sur 0 948.6 -1.4 68
2019-02-10 03:00:00 8.7 5 Oeste 27 Sudoeste 0 949.5 -0.6 67
2019-02-10 02:00:00 8.7 10 Oeste 33 Oeste 0 949.7 -0.4 65
2019-02-10 01:00:00 8.6 15 Oeste 38 Sudoeste 0 950 -0.5 64
2019-02-10 00:00:00 9.2 13 Sudoeste 39 Sudoeste 0 950.1 -0.3 61
2019-02-09 23:00:00 9.7 15 Sudoeste 32 Oeste 0 950.1 -0.4 58
2019-02-09 22:00:00 9.4 9 Oeste 32 Oeste 0 950.5 0.3 60
2019-02-09 21:00:00 10 9 Sudoeste 32 Sudoeste 0 950.4 0.2 59
2019-02-09 20:00:00 10.3 9 Sudoeste 27 Sudoeste 0 950.5 -0.2 58
2019-02-09 19:00:00 10.5 10 Sudoeste 36 Sudoeste 0 950.2 -1.4 56
2019-02-09 18:00:00 11.1 14 Sudoeste 35 Sur 0 950.2 -2 56
2019-02-09 17:00:00 11.3 13 Sur 31 Sur 0 950.7 -2.1 56
2019-02-09 16:00:00 10.6 15 Sudoeste 37 Sudoeste 0 951.6 -2.2 60
2019-02-09 15:00:00 11.3 17 Sudoeste 43 Oeste 0 952.2 -2.2 58
2019-02-09 14:00:00 10.5 9 Sudoeste 28 Sudoeste 0 952.8 -1.6 59
2019-02-09 13:00:00 10.1 11 Sudoeste 36 Sudoeste 0 953.8 -0.5 60
2019-02-09 12:00:00 9.5 13 Sudoeste 33 Sur 0 954.4 0 61
2019-02-09 11:00:00 8.8 6 Sudoeste 14 Sur 0 954.4 0.3 69
2019-02-09 10:00:00 4.8 3 Este 8 Sudeste 0 954.3 0.4 88
2019-02-09 09:00:00 2.9 4 Este 9 Sudeste 0 954.4 0.7 92
2019-02-09 08:00:00 0.7 2 Oeste 9 Nordeste 0 954.1 0.4 91
2019-02-09 07:00:00 0.5 5 Norte 11 Nordeste 0 953.9 0.1 91
2019-02-09 06:00:00 0.9 3 Norte 7 Norte 0 953.7 -0.1 89
2019-02-09 05:00:00 1.8 2 Norte 9 Nordeste 0 953.7 0.3 88
2019-02-09 04:00:00 2 2 Norte 10 Nordeste 0 953.8 0.7 87
2019-02-09 03:00:00 2.8 3 Nordeste 9 Este 0 953.8 0.9 85
2019-02-09 02:00:00 3.8 5 Norte 10 Norte 0 953.4 1 82
2019-02-09 01:00:00 5.5 4 Nordeste 6 Sur 0 953.1 0.9 77
2019-02-09 00:00:00 7.6 4 Oeste 18 Oeste 0 952.9 0.9 68
2019-02-08 23:00:00 7.9 5 Noroeste 18 Oeste 0 952.4 0.5 68
2019-02-08 22:00:00 8.2 5 Norte 18 Oeste 0 952.2 0.7 66
2019-02-08 21:00:00 8 8 Oeste 28 Sudoeste 0 952 0.7 67
2019-02-08 20:00:00 8 12 Oeste 33 Oeste 0 951.9 0.7 64
2019-02-08 19:00:00 8.3 10 Sudoeste 24 Oeste 0 951.5 0.2 61
2019-02-08 18:00:00 10.2 7 Sudoeste 32 Sudoeste 0 951.3 -0.5 55
2019-02-08 17:00:00 12.1 9 Sudoeste 33 Sudoeste 0 951.2 -1.1 51
2019-02-08 16:00:00 12.6 12 Sudoeste 30 Sudoeste 0 951.3 -1.5 48
2019-02-08 15:00:00 12.9 4 Oeste 37 Oeste 0 951.8 -1.2 44
2019-02-08 14:00:00 11.6 13 Oeste 39 Oeste 0 952.3 -1 52
2019-02-08 13:00:00 11.5 8 Sur 27 Oeste 0 952.8 -0.7 55
2019-02-08 12:00:00 9.3 3 Norte 10 Sudoeste 0 953 -0.2 66
2019-02-08 11:00:00 6.6 3 Sudeste 8 Oeste 0 953.3 0.2 86
2019-02-08 10:00:00 2.3 3 Este 7 Nordeste 0 953.5 0.1 94
2019-02-08 09:00:00 -0.5 4 Norte 11 Nordeste 0 953.2 -0.2 94
2019-02-08 08:00:00 -0.5 3 Sur 6 Sudoeste 0 953.1 -0.8 94
2019-02-08 07:00:00 -0.1 0 Calma 9 Sur 0 953.4 -0.8 94
2019-02-08 06:00:00 0.5 3 Norte 8 Norte 0 953.4 -1.3 93
2019-02-08 05:00:00 0.4 2 Noroeste 7 Sudoeste 0 953.9 -1.3 93
2019-02-08 04:00:00 0.4 2 Noroeste 5 Oeste 0 954.2 -1.6 93
2019-02-08 03:00:00 0.9 0 Calma 7 Nordeste 0 954.7 -1.2 93
2019-02-08 02:00:00 0.4 0 Calma 5 Oeste 0 955.2 -0.9 92
2019-02-08 01:00:00 1.1 2 Norte 4 Oeste 0 955.8 -0.4 92
2019-02-08 00:00:00 1.6 2 Sudeste 4 Sur 0 955.9 -0.3 91
2019-02-07 23:00:00 2.1 2 Sudeste 4 Sudeste 0 956.1 0 90
2019-02-07 22:00:00 3 0 Calma 5 Sur 0 956.2 0 89
2019-02-07 21:00:00 4 3 Sur 6 Nordeste 0 956.2 0.2 86
2019-02-07 20:00:00 5.3 3 Norte 8 Noroeste 0 956.1 0.1 84
2019-02-07 19:00:00 7.3 4 Noroeste 9 Noroeste 0 956.2 -0.1 76
2019-02-07 18:00:00 9.2 3 Norte 9 Norte 0 956 -0.5 68
2019-02-07 17:00:00 10.2 5 Norte 13 Noroeste 0 956 -0.4 65
2019-02-07 16:00:00 9.6 6 Noroeste 15 Noroeste 0 956.3 -0.6 67
2019-02-07 15:00:00 10 5 Oeste 12 Noroeste 0 956.5 -0.5 67
2019-02-07 14:00:00 9.4 5 Sudoeste 14 Oeste 0 956.4 -0.5 72
2019-02-07 13:00:00 8.4 4 Sudoeste 8 Sudoeste 0 956.9 0.2 78
2019-02-07 12:00:00 6.4 4 Sudeste 9 Sur 0 957 1.1 81
2019-02-07 11:00:00 5.3 3 Sudeste 5 Sudeste 0 956.9 1.4 91
2019-02-07 10:00:00 3.1 2 Oeste 7 Nordeste 0 956.7 1.9 92
2019-02-07 09:00:00 1.8 0 Calma 5 Este 0 955.9 1.1 92
2019-02-07 08:00:00 1.6 0 Calma 7 Nordeste 0 955.5 1 91
2019-02-07 07:00:00 1.6 2 Nordeste 6 Nordeste 0 954.8 0.2 90
2019-02-07 06:00:00 2.5 4 Nordeste 6 Nordeste 0 954.8 0.3 89
2019-02-07 05:00:00 4 3 Norte 8 Nordeste 0 954.5 -0.1 88
2019-02-07 04:00:00 3.9 3 Norte 7 Noroeste 0 954.6 -0.2 88
2019-02-07 03:00:00 4.1 3 Nordeste 6 Norte 0 954.5 0 86
2019-02-07 02:00:00 5.2 0 Calma 9 Nordeste 0 954.6 0.2 85
2019-02-07 01:00:00 5 4 Norte 9 Nordeste 0 954.8 0.5 86
2019-02-07 00:00:00 5 2 Nordeste 9 Norte 0 954.5 0.4 84
2019-02-06 23:00:00 5.5 6 Norte 13 Norte 0 954.4 0.1 83
2019-02-06 22:00:00 6.7 5 Nordeste 11 Noroeste 0 954.3 0.2 79
2019-02-06 21:00:00 9.1 5 Oeste 23 Sudoeste 0 954.1 0.2 69
2019-02-06 20:00:00 10.3 6 Sudoeste 21 Sudoeste 0 954.3 0 65
2019-02-06 19:00:00 11.4 6 Sudoeste 21 Sur 0 954.1 -0.6 61
2019-02-06 18:00:00 13.1 7 Sudoeste 23 Sudoeste 0 953.9 -1.6 57
2019-02-06 17:00:00 14.3 8 Sudoeste 27 Oeste 0 954.3 -2.3 55
2019-02-06 16:00:00 15 6 Sudoeste 15 Sudoeste 0 954.7 -3.1 55
2019-02-06 15:00:00 9.6 4 Sudeste 13 Sudeste 0 955.5 -3.2 77
2019-02-06 14:00:00 4.8 3 Sur 9 Sur 0 956.6 -2.6 91
2019-02-06 13:00:00 2.6 4 Sudeste 9 Sudeste 0 957.8 -1.6 94
2019-02-06 12:00:00 0.8 3 Nordeste 6 Sudeste 0 958.7 -0.8 94
2019-02-06 11:00:00 0.2 2 Sur 7 Sur 0 959.2 -0.1 94
2019-02-06 10:00:00 -0.4 3 Sur 6 Sudeste 0 959.4 -0.1 94
2019-02-06 09:00:00 -0.8 2 Sur 5 Sur 0 959.5 0 94
2019-02-06 08:00:00 -1 2 Este 4 Sudeste 0 959.3 -0.6 93
2019-02-06 07:00:00 -1 0 Calma 5 Este 0 959.5 -0.6 93
2019-02-06 06:00:00 -0.9 3 Nordeste 7 Nordeste 0 959.5 -1 93
2019-02-06 05:00:00 -0.9 0 Calma 5 Nordeste 0 959.9 -0.7 93
2019-02-06 04:00:00 -0.8 2 Noroeste 5 Nordeste 0 960.1 -1 92
2019-02-06 03:00:00 -0.3 3 Nordeste 5 Nordeste 0 960.5 -0.7 92
2019-02-06 02:00:00 0.1 3 Norte 5 Norte 0 960.6 -0.6 92
2019-02-06 01:00:00 0.6 3 Norte 4 Norte 0 961.1 0 91
2019-02-06 00:00:00 1.5 4 Nordeste 6 Nordeste 0 961.2 0.2 90
2019-02-05 23:00:00 2.3 2 Nordeste 5 Nordeste 0 961.2 0.3 89
2019-02-05 22:00:00 3.4 3 Este 6 Este 0 961.1 0.5 88
2019-02-05 21:00:00 4.5 0 Calma 4 Oeste 0 961 0.5 85
2019-02-05 20:00:00 6.4 3 Oeste 5 Nordeste 0 960.9 0.2 80
2019-02-05 19:00:00 9.5 3 Sudeste 5 Sudeste 0 960.6 0 69
2019-02-05 18:00:00 13.4 3 Sudoeste 8 Sur 0 960.5 -0.6 56
2019-02-05 17:00:00 14 3 Este 7 Oeste 0 960.7 -0.9 51
2019-02-05 16:00:00 13.9 3 Sudoeste 10 Sudoeste 0 960.6 -1.8 51
2019-02-05 15:00:00 12.8 4 Sudeste 12 Sudeste 0 961.1 -1.5 55
2019-02-05 14:00:00 11.2 3 Oeste 9 Sur 0 961.6 -0.9 57
2019-02-05 13:00:00 9.9 4 Sur 12 Sudeste 0 962.4 0 59
2019-02-05 12:00:00 7.6 4 Noroeste 9 Sudeste 0 962.6 0.6 68
2019-02-05 11:00:00 5.2 2 Este 6 Norte 0 962.5 1.1 73
2019-02-05 10:00:00 2.1 2 Sudeste 4 Sudeste 0 962.4 1.3 90
2019-02-05 09:00:00 -0.7 0 Calma 6 Noroeste 0 962 1 92
2019-02-05 08:00:00 -0.5 2 Nordeste 7 Nordeste 0 961.4 0.6 91
2019-02-05 07:00:00 -0.3 2 Norte 5 Norte 0 961.1 0.1 91
2019-02-05 06:00:00 0.6 2 Nordeste 5 Norte 0 961 -0.1 90
2019-02-05 05:00:00 1.5 3 Norte 7 Nordeste 0 960.8 -0.5 90
2019-02-05 04:00:00 1.5 5 Norte 10 Norte 0 961 -0.3 89
2019-02-05 03:00:00 2.8 0 Calma 6 Nordeste 0 961.1 -0.1 87
2019-02-05 02:00:00 3.5 2 Sudeste 5 Sur 0 961.3 0.1 86
2019-02-05 01:00:00 3.3 2 Nordeste 6 Nordeste 0 961.3 0.3 84
2019-02-05 00:00:00 3.4 0 Calma 5 Nordeste 0 961.2 0.4 85
2019-02-04 23:00:00 4.1 0 Calma 3 Oeste 0 961.2 0.8 84
2019-02-04 22:00:00 4.1 2 Sudeste 5 Sur 0 961 0.9 82
2019-02-04 21:00:00 4 0 Calma 5 Nordeste 0 960.8 0.7 81
2019-02-04 20:00:00 3.8 2 Sudoeste 6 Sur 0 960.4 0.3 79
2019-02-04 19:00:00 5.4 4 Sur 12 Sudeste 0 960.1 0.3 72
2019-02-04 18:00:00 6.6 3 Sudoeste 12 Oeste 0 960.1 -0.1 59
2019-02-04 17:00:00 7 6 Sudoeste 21 Oeste 0 960.1 -0.4 58
2019-02-04 16:00:00 7.2 7 Oeste 17 Oeste 0 959.8 -1.5 56
2019-02-04 15:00:00 6.8 4 Sur 13 Sudeste 0 960.2 -1.6 60
2019-02-04 14:00:00 6 4 Sudeste 9 Sudeste 0 960.5 -1.3 66
2019-02-04 13:00:00 4.1 3 Sur 12 Norte 0 961.3 -0.6 74
2019-02-04 12:00:00 0.2 0 Calma 5 Nordeste 0 961.8 0.3 94
2019-02-04 11:00:00 -1.8 0 Calma 13 Noroeste 0 961.8 0.6 94
2019-02-04 10:00:00 -2.2 5 Nordeste 9 Este 0 961.9 0.7 94
2019-02-04 09:00:00 -2.7 2 Este 6 Sudeste 0 961.5 0.2 94
2019-02-04 08:00:00 -2.6 3 Este 13 Sudeste 0 961.2 -0.3 94
2019-02-04 07:00:00 -2.4 4 Sudeste 10 Sudeste 0 961.2 -0.8 94
2019-02-04 06:00:00 -2.5 4 Sur 8 Sudeste 0 961.3 -0.7 94
2019-02-04 05:00:00 -2.5 0 Calma 5 Oeste 0 961.5 -0.9 93
2019-02-04 04:00:00 -2.7 0 Calma 8 Este 0 962 -0.3 93
2019-02-04 03:00:00 -2.5 3 Oeste 9 Sudeste 0 962 0.2 93
2019-02-04 02:00:00 -2.2 0 Calma 6 Nordeste 0 962.4 0.4 92
2019-02-04 01:00:00 -1.7 3 Nordeste 5 Norte 0 962.3 0.3 93
2019-02-04 00:00:00 -1.7 3 Nordeste 5 Norte 0 961.8 -0.1 92
2019-02-03 23:00:00 -1.3 2 Sur 5 Este 0 962 0.5 92
2019-02-03 22:00:00 -0.6 3 Norte 7 Nordeste 0 962 1.4 91
2019-02-03 21:00:00 -0.2 3 Sudeste 5 Sur 0 961.9 1.8 90
2019-02-03 20:00:00 0.8 0 Calma 4 Sur 0 961.5 1.6 88
2019-02-03 19:00:00 2.3 2 Noroeste 11 Nordeste 0 960.6 0.5 85
2019-02-03 18:00:00 3.4 8 Nordeste 18 Nordeste 0 960.1 -0.3 79
2019-02-03 17:00:00 5.5 5 Noroeste 12 Oeste 0 959.9 -0.2 67
2019-02-03 16:00:00 3.6 6 Norte 29 Norte 0.2 960.1 -0.7 78
2019-02-03 15:00:00 4.9 8 Norte 23 Norte 0 960.4 -0.1 68
2019-02-03 14:00:00 5.2 8 Norte 16 Sudeste 0 960.1 0.5 71
2019-02-03 13:00:00 1.7 6 Noroeste 20 Oeste 0.8 960.8 1.8 88
2019-02-03 12:00:00 2.3 6 Oeste 23 Oeste 0.2 960.5 2.4 88
2019-02-03 11:00:00 1.1 6 Noroeste 18 Noroeste 0.6 959.6 2.1 89
2019-02-03 10:00:00 0.6 6 Oeste 21 Norte 0.4 959 2.5 90
2019-02-03 09:00:00 -0.2 4 Este 9 Sur 0.2 958.1 2.2 91
2019-02-03 08:00:00 0.3 6 Oeste 25 Oeste 0 957.5 2.1 90
2019-02-03 07:00:00 -0.2 6 Oeste 16 Noroeste 0 956.5 1.3 88
2019-02-03 06:00:00 0.6 4 Sudoeste 23 Noroeste 0.2 955.9 1.5 77
2019-02-03 05:00:00 0.6 8 Norte 17 Noroeste 0 955.4 1.4 81
2019-02-03 04:00:00 0.1 4 Noroeste 26 Nordeste 0 955.2 1.8 86
2019-02-03 03:00:00 0.1 6 Oeste 14 Oeste 0 954.4 1.8 87
2019-02-03 02:00:00 0.1 4 Este 28 Norte 0 954 2 88
2019-02-03 01:00:00 0.2 14 Norte 49 Norte 0.6 953.4 2.4 83
2019-02-03 00:00:00 0.7 6 Noroeste 22 Noroeste 0.2 952.6 2.3 90
2019-02-02 23:00:00 1.5 11 Norte 32 Norte 0.4 952 2.7 82
2019-02-02 22:00:00 0.9 5 Norte 26 Norte 0 951 2.6 88
2019-02-02 21:00:00 0.8 4 Norte 23 Norte 0.8 950.3 2.8 90
2019-02-02 20:00:00 0.9 4 Oeste 21 Noroeste 0.6 949.3 2 90
2019-02-02 19:00:00 1.5 7 Norte 15 Norte 0 948.4 1.1 86
2019-02-02 18:00:00 1.1 2 Sur 9 Sudeste 0 947.5 0.8 90
2019-02-02 17:00:00 1.2 5 Sudeste 9 Sudoeste 0.8 947.3 0.7 90
2019-02-02 16:00:00 0.7 6 Nordeste 21 Noroeste 1 947.3 2 89
2019-02-02 15:00:00 0.9 9 Oeste 17 Sudoeste 1.2 946.7 2.7 89
2019-02-02 14:00:00 0.6 9 Norte 30 Norte 0.8 946.6 3.9 89
2019-02-02 13:00:00 2 18 Noroeste 42 Norte 0.2 945.3 4.5 80
2019-02-02 12:00:00 4.9 16 Noroeste 36 Noroeste 0 944 4.9 52
2019-02-02 11:00:00 3.2 10 Norte 36 Noroeste 0 942.7 5.8 69
2019-02-02 10:00:00 1.6 6 Noroeste 30 Noroeste 0.2 940.8 5 84
2019-02-02 09:00:00 1.5 9 Norte 37 Noroeste 2 939.1 5.5 86
2019-02-02 08:00:00 2.1 13 Noroeste 39 Noroeste 0.6 936.9 3.9 84
2019-02-02 07:00:00 2.2 16 Noroeste 41 Noroeste 0.6 935.8 4.2 84
2019-02-02 06:00:00 3 14 Noroeste 50 Noroeste 0.8 933.6 3.4 81
2019-02-02 05:00:00 1.2 22 Noroeste 65 Noroeste 2.8 933 3.7 89
2019-02-02 04:00:00 1.7 20 Oeste 50 Oeste 2.8 931.6 3.3 88
2019-02-02 03:00:00 1.4 17 Oeste 34 Noroeste 3.6 930.2 3.2 90
2019-02-02 02:00:00 0.6 7 Sudoeste 15 Sudoeste 4 929.3 3.7 90
2019-02-02 01:00:00 1.4 6 Oeste 18 Oeste 2.4 928.3 4.1 88
2019-02-02 00:00:00 2.4 3 Sudoeste 29 Oeste 0.6 927 3.6 87
2019-02-01 23:00:00 2.6 13 Oeste 30 Oeste 1.2 925.6 3.3 85
2019-02-01 22:00:00 3.3 10 Oeste 30 Oeste 0 924.2 2.8 80
2019-02-01 21:00:00 4.3 11 Oeste 28 Oeste 0 923.4 2.6 68
2019-02-01 20:00:00 4.1 13 Sudoeste 32 Sudoeste 0.2 922.3 2.1 66
2019-02-01 19:00:00 4.7 9 Oeste 27 Oeste 0 921.4 1.8 66
2019-02-01 18:00:00 5.6 21 Oeste 40 Oeste 0 920.8 1.1 65
2019-02-01 17:00:00 4.7 14 Sudoeste 41 Oeste 0.6 920.2 0 76
2019-02-01 16:00:00 6.5 23 Oeste 44 Sudoeste 0 919.6 -1 70
2019-02-01 15:00:00 4.3 15 Oeste 51 Sudoeste 2 919.7 -1.3 83
2019-02-01 14:00:00 6.4 13 Sudoeste 47 Sudoeste 0 920.2 -1 71
2019-02-01 13:00:00 7.1 20 Sudoeste 66 Sudoeste 0 920.6 -0.9 67
2019-02-01 12:00:00 7.4 26 Sudoeste 61 Sur 0 921 -0.4 65
2019-02-01 11:00:00 6.9 24 Sudoeste 50 Sudoeste 0 921.2 0 61
2019-02-01 10:00:00 6 19 Sudoeste 52 Sudoeste 0 921.5 0.6 67
2019-02-01 09:00:00 5.8 21 Sudoeste 61 Oeste 0 921.4 -0.4 64
2019-02-01 08:00:00 6.4 18 Sudoeste 58 Sudoeste 0 921.2 -2 61
2019-02-01 07:00:00 7.3 25 Sudoeste 63 Sudoeste 0 920.9 -2.9 62
2019-02-01 06:00:00 7 15 Sudoeste 39 Sudoeste 0 921.8 -2.1 67
2019-02-01 05:00:00 6.6 10 Sur 34 Sudoeste 0 923.2 -1.3 67
2019-02-01 04:00:00 7.2 10 Sudoeste 24 Sudoeste 0 923.8 -1.1 64
2019-02-01 03:00:00 7.5 8 Sur 22 Sudoeste 0 923.9 -1.1 67
2019-02-01 02:00:00 8.7 6 Sudoeste 25 Oeste 0 924.5 -0.5 68
2019-02-01 01:00:00 8.1 3 Noroeste 8 Sudeste 0 924.9 -0.8 82
2019-02-01 00:00:00 8.7 3 Oeste 26 Sudoeste 0 925 -1 81
2019-01-31 23:00:00 9.7 10 Sudoeste 30 Oeste 0.2 925 -0.9 75
2019-01-31 22:00:00 9.3 4 Sudeste 21 Nordeste 3 925.7 -0.1 87
2019-01-31 21:00:00 10.5 8 Oeste 34 Sudoeste 3 926 0.2 86
2019-01-31 20:00:00 11.3 15 Sudoeste 41 Sudoeste 1.2 925.9 0 81
2019-01-31 19:00:00 11.5 18 Sudoeste 58 Oeste 1.4 925.8 -0.9 81
2019-01-31 18:00:00 12.7 17 Sudoeste 54 Sudoeste 0 925.8 -1.9 74
2019-01-31 17:00:00 13.6 17 Sudoeste 51 Sudoeste 0 925.9 -2.7 69
2019-01-31 16:00:00 13.7 18 Sudoeste 46 Sudoeste 0 926.7 -2.7 72
2019-01-31 15:00:00 13.9 17 Sudoeste 46 Oeste 0 927.7 -2 69
2019-01-31 14:00:00 13.8 15 Sudoeste 51 Oeste 0 928.6 -1 70
2019-01-31 13:00:00 12.8 19 Sudoeste 46 Sudoeste 0 929.4 -0.6 71
2019-01-31 12:00:00 12 19 Sudoeste 46 Oeste 0 929.7 -0.5 70
2019-01-31 11:00:00 11.4 15 Sudoeste 33 Oeste 0 929.6 -0.3 74
2019-01-31 10:00:00 9.4 3 Este 10 Noroeste 0 930 0.2 85
2019-01-31 09:00:00 9 3 Norte 15 Oeste 0.2 930.2 -0.1 85
2019-01-31 08:00:00 8.6 6 Norte 12 Noroeste 0.2 929.9 -0.7 85
2019-01-31 07:00:00 8.4 6 Norte 14 Noroeste 0 929.8 -1.5 85
2019-01-31 06:00:00 8.2 6 Norte 19 Norte 0.2 930.3 -1.4 84
2019-01-31 05:00:00 7.7 9 Norte 19 Sudoeste 0.2 930.6 -1.7 86
2019-01-31 04:00:00 6.9 8 Norte 15 Norte 0.4 931.3 -1.9 88
2019-01-31 03:00:00 6.1 3 Norte 14 Sudoeste 0.8 931.7 -1.9 90
2019-01-31 02:00:00 5.3 3 Este 12 Nordeste 0.6 932.3 -2.2 90
2019-01-31 01:00:00 4.8 2 Sur 13 Este 0.4 933.2 -1.9 90
2019-01-31 00:00:00 4.5 2 Sur 10 Sur 1.2 933.6 -2.5 88
2019-01-30 23:00:00 4.5 4 Sur 7 Sudeste 0.8 934.5 -2.3 86
2019-01-30 22:00:00 4.9 5 Este 17 Oeste 0.8 935.1 -2.4 82
2019-01-30 21:00:00 5.3 8 Oeste 22 Oeste 0.4 936.1 -1.7 80
2019-01-30 20:00:00 5.9 7 Oeste 23 Oeste 0.2 936.8 -1.7 76
2019-01-30 19:00:00 6.3 10 Sudoeste 39 Oeste 0 937.5 -1.6 71
2019-01-30 18:00:00 7.3 12 Oeste 33 Sudoeste 0 937.8 -2.4 56
2019-01-30 17:00:00 7.9 11 Sudoeste 33 Sudoeste 0 938.5 -2.7 50
2019-01-30 16:00:00 8.3 13 Sudoeste 32 Oeste 0 939.1 -3.3 50
2019-01-30 15:00:00 8.7 17 Sudoeste 39 Oeste 0 940.2 -3.1 45
2019-01-30 14:00:00 8.5 12 Sudoeste 29 Oeste 0 941.2 -2.5 43
2019-01-30 13:00:00 8 11 Sudoeste 26 Oeste 0 942.4 -1.4 48
2019-01-30 12:00:00 7.5 8 Sudoeste 25 Sudoeste 0 943.3 -0.2 52
2019-01-30 11:00:00 6.1 8 Oeste 17 Oeste 0 943.7 0.3 59
2019-01-30 10:00:00 2.9 8 Oeste 15 Oeste 0 943.8 -0.1 72
2019-01-30 09:00:00 1.9 3 Sudeste 6 Sudoeste 0 943.5 -0.3 80
2019-01-30 08:00:00 2.5 3 Sudeste 7 Sur 0 943.4 -0.6 81
2019-01-30 07:00:00 3.1 3 Noroeste 8 Oeste 0 943.9 -0.5 78
2019-01-30 06:00:00 3.3 2 Noroeste 12 Oeste 0 943.8 -0.6 80
2019-01-30 05:00:00 3.4 4 Oeste 24 Sudoeste 0 944 -0.6 81
2019-01-30 04:00:00 3.4 7 Oeste 20 Oeste 0 944.4 0.3 80
2019-01-30 03:00:00 3.4 9 Oeste 25 Oeste 0 944.4 0.4 79
2019-01-30 02:00:00 3.4 10 Oeste 37 Oeste 0 944.6 0.4 80
2019-01-30 01:00:00 4.1 17 Oeste 46 Noroeste 0 944.1 0.5 72
2019-01-30 00:00:00 4.1 18 Noroeste 44 Noroeste 0 944 0.3 70
2019-01-29 23:00:00 4.2 17 Noroeste 53 Noroeste 0 944.2 1.3 69
2019-01-29 22:00:00 4.3 15 Noroeste 41 Norte 0 943.6 2 65
2019-01-29 21:00:00 4.2 14 Oeste 53 Oeste -- 943.7 2.6 74
2019-01-29 20:00:00 5.6 15 Noroeste 50 Noroeste 0 942.9 1.9 71
2019-01-29 19:00:00 5.5 18 Noroeste 51 Noroeste 0 941.6 1.1 68
2019-01-29 18:00:00 6.5 20 Noroeste 62 Noroeste 0 941.1 0.9 68
2019-01-29 17:00:00 7.2 21 Noroeste 57 Oeste 0.2 941 0.9 71
2019-01-29 16:00:00 8.9 18 Noroeste 44 Noroeste 0.2 940.5 -0.2 72
2019-01-29 15:00:00 8.3 10 Noroeste 40 Sudoeste 1 940.2 -2.1 83
2019-01-29 14:00:00 7.8 17 Oeste 43 Sudoeste 0.4 940.1 -2.9 80
2019-01-29 13:00:00 7.3 15 Sudoeste 39 Sudoeste 0 940.7 -3.3 75
2019-01-29 12:00:00 6.6 18 Oeste 36 Oeste 0 942.3 -2.1 74
2019-01-29 11:00:00 6.2 13 Sudoeste 28 Oeste 0 943 -2.5 75
2019-01-29 10:00:00 4.6 2 Noroeste 11 Este 0 944 -1.9 74
2019-01-29 09:00:00 3.9 5 Sudeste 9 Sudeste 0 944.4 -2.9 79
2019-01-29 08:00:00 3.8 2 Noroeste 10 Sudoeste 0 945.5 -2.2 85
2019-01-29 07:00:00 3.9 5 Sudeste 13 Sudoeste 0 945.9 -2.9 84
2019-01-29 06:00:00 4.2 0 Calma 8 Sudeste 0 947.3 -1.8 83
2019-01-29 05:00:00 3.9 4 Sudeste 16 Noroeste 0 947.7 -1.9 83
2019-01-29 04:00:00 3.8 2 Nordeste 14 Sur 0 948.8 -1.5 85
2019-01-29 03:00:00 4.3 5 Norte 20 Oeste 0 949.1 -1.5 83
2019-01-29 02:00:00 4.1 5 Oeste 18 Oeste 0.2 949.6 -1.2 86
2019-01-29 01:00:00 4.8 10 Oeste 26 Oeste 0.4 950.3 -0.6 82
2019-01-29 00:00:00 5 9 Oeste 23 Oeste 0.4 950.6 -0.4 83
2019-01-28 23:00:00 5 9 Oeste 25 Oeste 0.8 950.8 0.5 84
2019-01-28 22:00:00 5.2 9 Oeste 30 Noroeste 0 950.9 1 81
2019-01-28 21:00:00 5.9 10 Noroeste 33 Noroeste 0.4 951 1.2 76
2019-01-28 20:00:00 5.8 8 Noroeste 31 Noroeste 0.2 950.3 1.2 80
2019-01-28 19:00:00 6.3 12 Norte 31 Noroeste 0.4 949.9 0.9 71
2019-01-28 18:00:00 5.8 7 Noroeste 39 Noroeste 0.8 949.8 1 83
2019-01-28 17:00:00 6.8 13 Noroeste 44 Oeste 0.2 949.1 0.7 78
2019-01-28 16:00:00 7.1 17 Oeste 44 Oeste 0.2 949 1.2 74
2019-01-28 15:00:00 7 15 Oeste 40 Oeste 0.2 948.8 1.2 75
2019-01-28 14:00:00 7.3 13 Oeste 46 Noroeste 0 948.4 1.3 70
2019-01-28 13:00:00 7.6 13 Noroeste 59 Noroeste 0.4 947.8 0.7 74
2019-01-28 12:00:00 8.3 18 Noroeste 66 Noroeste 0 947.6 1 72
2019-01-28 11:00:00 7.7 20 Noroeste 50 Noroeste 0.4 947.1 1.1 74
2019-01-28 10:00:00 7.4 14 Noroeste 53 Noroeste 0 947.1 1.2 79
2019-01-28 09:00:00 7.1 19 Noroeste 60 Oeste 0.2 946.6 0 76
2019-01-28 08:00:00 6.9 10 Noroeste 55 Noroeste 0 946 -1.5 76
2019-01-28 07:00:00 6.9 15 Noroeste 48 Oeste 0 945.9 -1.8 74
2019-01-28 06:00:00 6.2 15 Oeste 36 Oeste 0.4 946.6 -1.8 82
2019-01-28 05:00:00 4.4 8 Oeste 21 Sudoeste 0.2 947.5 -2 85
2019-01-28 04:00:00 4.4 8 Sudoeste 24 Oeste 0.4 947.7 -2.1 80
2019-01-28 03:00:00 4.6 3 Sudoeste 14 Oeste 0.2 948.4 -1.5 80
2019-01-28 02:00:00 5 5 Oeste 30 Oeste 0 949.5 -1 74
2019-01-28 01:00:00 5.1 11 Oeste 47 Noroeste 0 949.8 -0.5 70
2019-01-28 00:00:00 5 14 Noroeste 43 Noroeste 0 949.9 -0.5 68
2019-01-27 23:00:00 4.6 13 Noroeste 40 Oeste 0.2 950.5 0.2 75
2019-01-27 22:00:00 4.9 10 Noroeste 35 Noroeste 0.2 950.3 0.2 74
2019-01-27 21:00:00 4.5 6 Norte 26 Norte 0 950.4 0.7 79
2019-01-27 20:00:00 4.2 3 Sudeste 20 Oeste 0.2 950.3 1.1 83
2019-01-27 19:00:00 4.3 2 Sudoeste 24 Oeste 0.4 950.1 1.1 83
2019-01-27 18:00:00 5.4 10 Noroeste 28 Noroeste 0 949.7 1.4 69
2019-01-27 17:00:00 5.4 10 Oeste 45 Norte 0.2 949.2 0.5 74
2019-01-27 16:00:00 6.1 10 Noroeste 54 Noroeste 0 949 0.4 72
2019-01-27 15:00:00 6 10 Oeste 44 Oeste 0.2 948.3 0 73
2019-01-27 14:00:00 5.9 14 Noroeste 41 Noroeste 0.2 948.7 1.2 75
2019-01-27 13:00:00 5 10 Noroeste 49 Oeste 1.4 948.6 1.9 81
2019-01-27 12:00:00 5 15 Noroeste 48 Norte 0.6 948.3 2.2 79
2019-01-27 11:00:00 4.8 11 Noroeste 29 Norte 0.4 947.5 2.2 81
2019-01-27 10:00:00 4.9 11 Noroeste 52 Oeste 0.2 946.7 1 79
2019-01-27 09:00:00 5.9 10 Noroeste 36 Noroeste 0 946.1 0.6 62
2019-01-27 08:00:00 5.7 14 Noroeste 52 Oeste 0 945.3 -0.4 65
2019-01-27 07:00:00 6.6 13 Noroeste 38 Norte 0 945.7 -0.2 68
2019-01-27 06:00:00 6.3 14 Noroeste 26 Noroeste 0 945.5 -0.1 79
2019-01-27 05:00:00 2.2 3 Este 9 Norte 0 945.7 -0.4 93
2019-01-27 04:00:00 0.7 0 Calma 5 Norte 0 945.9 -1 92
2019-01-27 03:00:00 0.7 4 Norte 6 Norte 0 945.6 -1.3 92
2019-01-27 02:00:00 0.5 0 Calma 8 Sudeste 0 946.1 -1.5 91
2019-01-27 01:00:00 1 2 Sur 12 Norte 0 946.9 -1 90
2019-01-27 00:00:00 1.6 0 Calma 7 Norte 0 946.9 -1.5 89
2019-01-26 23:00:00 2.4 3 Sur 9 Nordeste 0 947.6 -1.3 88
2019-01-26 22:00:00 3.1 4 Nordeste 7 Nordeste 0 947.9 -0.9 88
2019-01-26 21:00:00 4.4 3 Nordeste 6 Nordeste 0 948.4 -0.6 84
2019-01-26 20:00:00 5.6 0 Calma 6 Oeste 0 948.9 -0.5 82
2019-01-26 19:00:00 8 3 Sur 15 Oeste 0 948.8 -1.1 71
2019-01-26 18:00:00 10.1 7 Oeste 19 Oeste 0 949 -1.4 62
2019-01-26 17:00:00 11.6 10 Sudoeste 23 Sudoeste 0 949.4 -2 57
2019-01-26 16:00:00 13.2 3 Oeste 12 Sudeste 0 949.9 -2.7 52
2019-01-26 15:00:00 12.4 6 Sudeste 14 Sudeste 0 950.4 -2.9 56
2019-01-26 14:00:00 11.3 6 Sudeste 18 Oeste 0 951.4 -2.4 59
2019-01-26 13:00:00 9.6 6 Oeste 21 Sudoeste 0 952.6 -1.7 62
2019-01-26 12:00:00 8.6 4 Sudoeste 9 Sudoeste 0 953.3 -1.2 68
2019-01-26 11:00:00 6 3 Noroeste 8 Sudoeste 0 953.8 -0.7 75
2019-01-26 10:00:00 3.4 0 Calma 4 Nordeste 0 954.3 -0.1 92
2019-01-26 09:00:00 1.1 0 Calma 4 Nordeste 0 954.5 -0.3 90
2019-01-26 08:00:00 2.1 0 Calma 5 Oeste 0 954.5 -0.6 88
2019-01-26 07:00:00 3.8 2 Sur 5 Sudoeste 0 954.4 -0.9 89
2019-01-26 06:00:00 4.5 0 Calma 6 Este 0 954.8 -0.7 90
2019-01-26 05:00:00 5.1 0 Calma 6 Este 0 955.1 -0.9 89
2019-01-26 04:00:00 5.3 3 Este 7 Sudoeste 0 955.3 -1.3 88
2019-01-26 03:00:00 6 2 Sudeste 5 Sudoeste 0 955.5 -1 86
2019-01-26 02:00:00 6.1 2 Sudeste 4 Nordeste 0 956 -0.4 85
2019-01-26 01:00:00 6.1 2 Norte 4 Sudeste 0 956.6 0.4 84
2019-01-26 00:00:00 6 2 Sur 8 Sur 0 956.5 0.5 82
2019-01-25 23:00:00 6.3 2 Noroeste 9 Noroeste 0 956.4 0.6 80
2019-01-25 22:00:00 6.7 5 Oeste 9 Noroeste 0 956.2 0.5 80
2019-01-25 21:00:00 7.1 3 Oeste 11 Noroeste 0 956 0.8 78
2019-01-25 20:00:00 7.6 4 Noroeste 22 Nordeste 0 955.8 1.1 73
2019-01-25 19:00:00 8.1 8 Norte 21 Norte 0 955.7 1.6 71
2019-01-25 18:00:00 8.7 9 Norte 29 Noroeste 0 955.2 1.4 70
2019-01-25 17:00:00 9.5 9 Noroeste 28 Norte 0 954.7 0.7 67
2019-01-25 16:00:00 9.9 14 Norte 29 Norte 0 954.1 -0.2 65
2019-01-25 15:00:00 10.7 13 Noroeste 31 Noroeste 0 953.8 -1 64
2019-01-25 14:00:00 10.7 13 Noroeste 29 Noroeste 0 954 -0.1 65
2019-01-25 13:00:00 11 12 Noroeste 24 Noroeste 0 954.3 0.8 65
2019-01-25 12:00:00 9.6 8 Noroeste 27 Noroeste 0 954.8 2.1 71
2019-01-25 11:00:00 9.3 10 Noroeste 27 Noroeste 0 954.1 2.4 75
2019-01-25 10:00:00 9.3 5 Noroeste 24 Oeste 0 953.5 2.4 75
2019-01-25 09:00:00 8 11 Oeste 30 Oeste 0 952.7 1.8 79
2019-01-25 08:00:00 8.4 15 Oeste 32 Oeste 0 951.7 0.8 78
2019-01-25 07:00:00 8.3 3 Sudoeste 16 Oeste 0 951.1 0.2 80
2019-01-25 06:00:00 8.3 4 Oeste 19 Norte 0 950.9 0.2 79
2019-01-25 05:00:00 8.1 8 Norte 22 Norte 0 950.9 0.6 80
2019-01-25 04:00:00 8.1 4 Noroeste 18 Oeste 0 950.9 0.7 82
2019-01-25 03:00:00 7.8 3 Noroeste 14 Oeste 0 950.7 0.8 82
2019-01-25 02:00:00 7.6 6 Oeste 14 Oeste 0 950.3 0.9 86
2019-01-25 01:00:00 7.8 3 Norte 23 Norte 0 950.2 1.2 87
2019-01-25 00:00:00 8.6 5 Norte 32 Norte 0 949.9 1.3 83
2019-01-24 23:00:00 8.8 14 Norte 29 Norte 0 949.4 0.7 82
2019-01-24 22:00:00 9 10 Norte 23 Norte 0 949 1.2 81
2019-01-24 21:00:00 8.3 5 Norte 14 Norte 0 948.6 1 85
2019-01-24 20:00:00 8.2 7 Nordeste 16 Nordeste 0 948.7 1.7 85
2019-01-24 19:00:00 8 4 Norte 8 Norte 0 947.8 1 87
2019-01-24 18:00:00 8.3 4 Oeste 11 Norte 0 947.6 0.9 86
2019-01-24 17:00:00 8.4 4 Nordeste 14 Nordeste 0 947 0.3 85
2019-01-24 16:00:00 8.1 0 Calma 13 Sudoeste 0 946.8 0 85
2019-01-24 15:00:00 7.6 3 Nordeste 16 Nordeste 0 946.7 0 85
2019-01-24 14:00:00 6.7 6 Norte 15 Norte 0.8 946.7 0.8 89
2019-01-24 13:00:00 6.2 4 Nordeste 9 Nordeste 1 946.8 1.3 91
2019-01-24 12:00:00 5.6 2 Noroeste 6 Noroeste 2.4 946.7 1.8 93
2019-01-24 11:00:00 5.6 2 Oeste 4 Oeste 2 945.9 1.6 93
2019-01-24 10:00:00 5.4 0 Calma 6 Oeste 3.4 945.5 1.6 94
2019-01-24 09:00:00 5.3 0 Calma 4 Sudoeste 2.4 944.9 1 93
2019-01-24 08:00:00 5.4 0 Calma 8 Noroeste 1.4 944.3 1 93
2019-01-24 07:00:00 5.5 4 Noroeste 7 Noroeste 1.2 943.9 0.4 93
2019-01-24 06:00:00 5.5 2 Noroeste 7 Noroeste 0.8 943.9 0.5 93
2019-01-24 05:00:00 5.5 4 Oeste 16 Noroeste 1.8 943.3 0.3 93
2019-01-24 04:00:00 5.6 4 Norte 11 Norte 1.4 943.5 0.3 93
2019-01-24 03:00:00 5.6 3 Noroeste 8 Noroeste 2.4 943.4 0.5 93
2019-01-24 02:00:00 5.5 2 Noroeste 4 Oeste 2.8 943 0 93
2019-01-24 01:00:00 5.5 2 Oeste 6 Nordeste 2 943.2 0.3 92
2019-01-24 00:00:00 5.7 0 Calma 13 Norte 1.8 942.9 0.8 91
2019-01-23 23:00:00 6 4 Noroeste 26 Norte 2.2 943 1.4 91
2019-01-23 22:00:00 6.1 7 Norte 25 Norte 2.8 942.9 1.7 90
2019-01-23 21:00:00 6.3 10 Noroeste 51 Noroeste 2 942.1 1.3 88
2019-01-23 20:00:00 7 17 Noroeste 50 Noroeste 0.8 941.6 0.8 82
2019-01-23 19:00:00 7.4 13 Noroeste 44 Norte 0.6 941.2 0.7 83
2019-01-23 18:00:00 7.6 12 Noroeste 35 Noroeste 0.8 940.8 0.6 83
2019-01-23 17:00:00 7.5 16 Noroeste 37 Noroeste 0.6 940.8 0.1 83
2019-01-23 16:00:00 7.4 10 Noroeste 33 Noroeste 1 940.5 0.1 85
2019-01-23 15:00:00 7.6 7 Noroeste 30 Noroeste 1 940.2 -0.3 86
2019-01-23 14:00:00 7.5 14 Noroeste 45 Noroeste 1.4 940.7 0.7 84
2019-01-23 13:00:00 7.8 12 Noroeste 40 Noroeste 0.6 940.4 0.7 84
2019-01-23 12:00:00 7.3 9 Norte 49 Noroeste 0.2 940.5 1.6 86
2019-01-23 11:00:00 7.2 17 Noroeste 42 Noroeste 0.8 940 1.3 82
2019-01-23 10:00:00 7.1 13 Noroeste 37 Noroeste 2.2 939.7 1.3 83
2019-01-23 09:00:00 7.2 14 Noroeste 44 Oeste 0.2 938.9 0.8 85
2019-01-23 08:00:00 7 15 Noroeste 53 Noroeste 1 938.7 -0.1 85
2019-01-23 07:00:00 7.4 15 Noroeste 37 Oeste 1 938.4 -1.3 86
2019-01-23 06:00:00 4.9 15 Oeste 32 Sudoeste 2 938.1 -2.9 89
2019-01-23 05:00:00 4.1 9 Oeste 21 Oeste 2.8 938.8 -3.3 88
2019-01-23 04:00:00 3.2 8 Oeste 16 Oeste 1.2 939.7 -3.2 90
2019-01-23 03:00:00 2.6 4 Sudoeste 21 Sudoeste 1.8 941 -2.1 89
2019-01-23 02:00:00 2.4 10 Oeste 21 Oeste 2.2 942.1 -1.3 89
2019-01-23 01:00:00 2.3 4 Oeste 15 Oeste 2 942.9 -0.7 89
2019-01-23 00:00:00 2.3 4 Oeste 21 Oeste 1.8 943.1 -1.2 89
2019-01-22 23:00:00 2.4 5 Sudoeste 17 Sudoeste 1.2 943.4 -1.2 89
2019-01-22 22:00:00 2.3 4 Sudoeste 15 Sudoeste 1 943.6 -1.4 90
2019-01-22 21:00:00 2.1 3 Sudoeste 9 Oeste 1.6 944.3 -0.8 89
2019-01-22 20:00:00 2.2 2 Sudoeste 9 Sudoeste 1.8 944.6 -0.9 89
2019-01-22 19:00:00 2.5 3 Sudeste 10 Sudoeste 1.2 945 -1 89
2019-01-22 18:00:00 2.7 5 Sur 17 Sudoeste 0.8 945.1 -1.3 88
2019-01-22 17:00:00 3.1 6 Sudoeste 14 Oeste 0.8 945.5 -1.3 88
2019-01-22 16:00:00 2.9 7 Oeste 20 Noroeste 2.2 946 -1.2 88
2019-01-22 15:00:00 2.9 6 Oeste 21 Sudoeste 2 946.4 -2.2 88
2019-01-22 14:00:00 2.9 9 Sudoeste 20 Sudoeste 2.4 946.8 -1.6 88
2019-01-22 13:00:00 2.9 13 Oeste 25 Oeste 0.4 947.2 -0.9 88
2019-01-22 12:00:00 0.9 2 Norte 9 Oeste 2.4 948.6 0 89
2019-01-22 11:00:00 2 5 Oeste 16 Oeste 0.6 948.4 -0.6 84
2019-01-22 10:00:00 2.7 3 Norte 16 Sudoeste 0 948.1 -1.7 80
2019-01-22 09:00:00 2.7 2 Noroeste 10 Sudoeste 0 948.6 -1.7 77
2019-01-22 08:00:00 2.2 3 Nordeste 9 Oeste 0 949 -2 82
2019-01-22 07:00:00 0.9 0 Calma 10 Sur 0 949.8 -2.2 93
2019-01-22 06:00:00 0.6 6 Sur 10 Sur 0 950.3 -2.3 93
2019-01-22 05:00:00 0.4 3 Sudeste 9 Sur 0 951 -2.5 93
2019-01-22 04:00:00 0.1 4 Sudeste 9 Sudeste 0 952 -2 93
2019-01-22 03:00:00 0 2 Sudeste 6 Este 0 952.6 -2 92
2019-01-22 02:00:00 -0.1 3 Sudeste 8 Este 0 953.5 -1 92
2019-01-22 01:00:00 0.1 2 Nordeste 7 Nordeste 0 954 -1 91
2019-01-22 00:00:00 1.3 0 Calma 8 Nordeste 0.2 954.6 -0.9 89
2019-01-21 23:00:00 1.9 2 Nordeste 6 Norte 0 954.5 -0.8 89
2019-01-21 22:00:00 1.7 3 Norte 8 Nordeste 0 955 -0.1 86
2019-01-21 21:00:00 2.4 2 Oeste 12 Oeste 0 955.5 0.4 83
2019-01-21 20:00:00 3.3 4 Norte 21 Oeste 0 955.3 0.6 80
2019-01-21 19:00:00 3.1 7 Oeste 17 Oeste 0 955.1 0.4 83
2019-01-21 18:00:00 4.5 4 Noroeste 18 Oeste 0 955.1 0.1 79
2019-01-21 17:00:00 5.6 5 Oeste 18 Nordeste 0 954.7 -0.6 71
2019-01-21 16:00:00 6 9 Norte 20 Norte 0 954.7 -1 66
2019-01-21 15:00:00 5.5 10 Noroeste 22 Noroeste 0 955 -1.1 71
2019-01-21 14:00:00 6.9 7 Norte 18 Nordeste 0 955.3 -0.2 64
2019-01-21 13:00:00 5.4 4 Este 10 Este 0 955.7 0.9 73
2019-01-21 12:00:00 4.6 4 Noroeste 16 Sudoeste 0 956.1 1.9 76
2019-01-21 11:00:00 4.2 4 Oeste 14 Oeste 0 955.5 1.8 82
2019-01-21 10:00:00 3.3 2 Este 17 Oeste 0 954.8 1.3 90
2019-01-21 09:00:00 2.8 5 Oeste 11 Oeste 0.4 954.2 1.1 91
2019-01-21 08:00:00 2.8 4 Norte 13 Norte 0.2 953.7 0.8 92
2019-01-21 07:00:00 2.2 3 Nordeste 6 Nordeste 0.2 953.5 0.2 92
2019-01-21 06:00:00 1.8 2 Sudeste 11 Nordeste 0.4 953.1 0.6 92
2019-01-21 05:00:00 1.5 2 Sur 9 Sur 0.8 952.9 0.2 90
2019-01-21 04:00:00 2.2 7 Norte 15 Norte 2.6 953.3 0.9 91
2019-01-21 03:00:00 2.4 2 Sudeste 14 Oeste 0 952.5 0.1 90
2019-01-21 02:00:00 3.2 2 Sur 13 Nordeste 2 952.7 1 89
2019-01-21 01:00:00 3.4 0 Calma 13 Sudeste 0 952.4 0.6 90
2019-01-21 00:00:00 3.7 3 Norte 17 Oeste 0.4 952.4 1.2 90
2019-01-20 23:00:00 3.8 0 Calma 12 Noroeste 1 951.7 1.1 89
2019-01-20 22:00:00 4.1 5 Norte 12 Oeste 1 951.8 1.6 90
2019-01-20 21:00:00 4.3 0 Calma 11 Oeste 1.2 951.2 1.7 90
2019-01-20 20:00:00 4.4 2 Oeste 9 Oeste 0.2 950.6 1.5 89
2019-01-20 19:00:00 4.9 3 Noroeste 13 Sudoeste 0.6 950.2 1.4 89
2019-01-20 18:00:00 5.4 2 Sur 14 Oeste 1.2 949.5 1.2 85
2019-01-20 17:00:00 6.4 2 Este 10 Noroeste 0.4 949.1 1 78
2019-01-20 16:00:00 5.5 2 Nordeste 23 Norte 1.4 948.8 0.6 84
2019-01-20 15:00:00 5.2 10 Norte 29 Norte 0.8 948.3 0.2 82
2019-01-20 14:00:00 5.9 3 Oeste 12 Oeste 0.6 948.1 0.9 85
2019-01-20 13:00:00 5.6 4 Sudeste 15 Noroeste 0.4 948.2 1.7 86
2019-01-20 12:00:00 5.5 4 Noroeste 15 Noroeste 0.8 948.1 2.6 87
2019-01-20 11:00:00 4.7 3 Sudeste 6 Sudeste 0.2 947.2 1.9 92
2019-01-20 10:00:00 3.2 0 Calma 7 Noroeste 0 946.5 2 92
2019-01-20 09:00:00 2.7 6 Sudeste 13 Sudeste 0.2 945.5 1.1 92
2019-01-20 08:00:00 2.4 0 Calma 8 Nordeste 0.4 945.3 1.6 92
2019-01-20 07:00:00 2.4 4 Oeste 13 Nordeste 1 944.5 1.2 92
2019-01-20 06:00:00 2.7 3 Norte 7 Noroeste 1.2 944.4 1.3 92
2019-01-20 05:00:00 2.5 2 Norte 11 Sudoeste 0 943.7 1.1 92
2019-01-20 04:00:00 2.4 2 Noroeste 8 Nordeste 0 943.3 1.2 91
2019-01-20 03:00:00 2.4 3 Nordeste 5 Norte 0 943.1 1.7 91
2019-01-20 02:00:00 2.4 2 Noroeste 6 Norte 0.2 942.6 1.5 91
2019-01-20 01:00:00 2.4 2 Oeste 5 Norte 0.2 942.1 1.1 91
2019-01-20 00:00:00 2.5 3 Oeste 5 Oeste 0 941.4 0.5 91
2019-01-19 23:00:00 2.3 2 Noroeste 7 Norte 0 941.1 -0.1 90
2019-01-19 22:00:00 2.3 4 Norte 8 Nordeste 0 941 -0.3 90
2019-01-19 21:00:00 2.6 4 Nordeste 7 Nordeste 0.4 940.9 -0.6 89
2019-01-19 20:00:00 2.7 0 Calma 12 Sudeste 1.4 941.2 -0.7 88
2019-01-19 19:00:00 3 3 Norte 9 Noroeste 0.8 941.3 -1.4 85
2019-01-19 18:00:00 4.1 2 Oeste 8 Oeste 0.4 941.5 -1.7 80
2019-01-19 17:00:00 4.8 3 Oeste 14 Sur 0 941.9 -2.3 78
2019-01-19 16:00:00 5.4 6 Oeste 17 Sudoeste 0.2 942.7 -3 76
2019-01-19 15:00:00 6 4 Sudoeste 22 Sur 0 943.2 -3.8 71
2019-01-19 14:00:00 5.8 4 Sudeste 17 Noroeste 0 944.2 -2.9 69
2019-01-19 13:00:00 5.1 5 Oeste 24 Oeste 0 945.7 -1.4 74
2019-01-19 12:00:00 4.8 11 Oeste 23 Sudoeste 0 947 -0.4 74
2019-01-19 11:00:00 4.9 3 Sudoeste 10 Sudeste 0 947.1 -0.4 72
2019-01-19 10:00:00 4.4 3 Sur 11 Oeste 0 947.1 -0.5 77
2019-01-19 09:00:00 3.8 8 Oeste 20 Sudoeste 0 947.4 -0.4 79
2019-01-19 08:00:00 4 4 Sudoeste 13 Sudoeste 0 947.5 -0.6 77
2019-01-19 07:00:00 4 7 Sudoeste 20 Oeste 0 947.6 -0.8 78
2019-01-19 06:00:00 3.9 5 Sudoeste 14 Sudoeste 0 947.8 -0.8 79
2019-01-19 05:00:00 4 6 Oeste 15 Oeste 0 948.1 -0.8 78
2019-01-19 04:00:00 4 2 Noroeste 10 Este 0 948.4 -0.7 80
2019-01-19 03:00:00 4.1 4 Nordeste 12 Sur 0 948.6 -0.7 79
2019-01-19 02:00:00 3.9 4 Sudoeste 15 Oeste 0 948.9 -0.4 81
2019-01-19 01:00:00 3.4 4 Nordeste 8 Nordeste 0 949.1 0.3 86
2019-01-19 00:00:00 3.7 2 Nordeste 10 Oeste 0 949.3 0.5 84